createdAt,value
2024-02-08T00:00:12.119Z,13.10
2024-02-08T00:03:01.298Z,10.50
2024-02-08T00:05:29.683Z,11.50
2024-02-08T00:08:00.049Z,11.20
2024-02-08T00:10:28.301Z,11.60
2024-02-08T00:12:58.597Z,9.10
2024-02-08T00:15:30.147Z,9.30
2024-02-08T00:17:59.756Z,11.00
2024-02-08T00:20:27.831Z,8.80
2024-02-08T00:22:58.417Z,11.70
2024-02-08T00:25:26.565Z,12.60
2024-02-08T00:27:57.052Z,8.20
2024-02-08T00:30:24.917Z,15.70
2024-02-08T00:32:55.259Z,11.50
2024-02-08T00:35:24.146Z,9.40
2024-02-08T00:37:54.535Z,8.50
2024-02-08T00:40:23.971Z,10.80
2024-02-08T00:42:53.774Z,8.60
2024-02-08T00:45:25.122Z,8.20
2024-02-08T00:47:59.036Z,9.50
2024-02-08T00:50:27.303Z,7.30
2024-02-08T00:52:57.968Z,10.30
2024-02-08T00:55:27.135Z,9.10
2024-02-08T00:57:56.291Z,8.50
2024-02-08T01:00:24.502Z,10.80
2024-02-08T01:02:52.470Z,10.60
2024-02-08T01:05:22.490Z,9.20
2024-02-08T01:07:50.814Z,10.20
2024-02-08T01:10:21.090Z,9.70
2024-02-08T01:12:49.254Z,11.30
2024-02-08T01:15:19.483Z,13.80
2024-02-08T01:17:51.988Z,12.90
2024-02-08T01:20:23.714Z,13.00
2024-02-08T01:22:51.842Z,17.10
2024-02-08T01:25:21.383Z,14.00
2024-02-08T01:27:49.468Z,12.30
2024-02-08T01:30:19.904Z,11.30
2024-02-08T01:32:49.367Z,11.10
2024-02-08T01:35:22.709Z,12.20
2024-02-08T01:37:52.182Z,14.00
2024-02-08T01:40:22.824Z,12.90
2024-02-08T01:42:57.854Z,10.60
2024-02-08T01:45:31.626Z,12.70
2024-02-08T01:48:04.566Z,10.60
2024-02-08T01:50:36.303Z,12.50
2024-02-08T01:53:06.035Z,10.80
2024-02-08T01:55:36.137Z,11.40
2024-02-08T01:58:05.020Z,8.80
2024-02-08T02:00:37.231Z,14.10
2024-02-08T02:03:05.792Z,15.50
2024-02-08T02:05:37.023Z,15.50
2024-02-08T02:08:06.659Z,12.20
2024-02-08T02:10:35.759Z,11.60
2024-02-08T02:13:05.428Z,12.40
2024-02-08T02:15:34.620Z,16.10
2024-02-08T02:18:04.639Z,14.60
2024-02-08T02:20:34.046Z,15.30
2024-02-08T02:23:02.357Z,20.50
2024-02-08T02:25:33.095Z,18.90
2024-02-08T02:28:04.612Z,18.60
2024-02-08T02:30:36.248Z,18.10
2024-02-08T02:33:04.928Z,14.50
2024-02-08T02:35:34.254Z,17.80
2024-02-08T02:38:03.135Z,13.10
2024-02-08T02:40:34.723Z,11.30
2024-02-08T02:43:10.360Z,16.90
2024-02-08T02:45:39.535Z,16.60
2024-02-08T02:48:08.705Z,14.90
2024-02-08T02:50:44.639Z,13.10
2024-02-08T02:53:13.977Z,9.90
2024-02-08T02:55:42.928Z,13.00
2024-02-08T02:58:13.201Z,14.00
2024-02-08T03:00:41.794Z,15.10
2024-02-08T03:03:14.551Z,12.20
2024-02-08T03:05:46.623Z,10.20
2024-02-08T03:08:17.086Z,12.30
2024-02-08T03:10:45.166Z,14.50
2024-02-08T03:13:14.333Z,15.90
2024-02-08T03:15:44.245Z,15.00
2024-02-08T03:18:15.253Z,10.60
2024-02-08T03:20:46.112Z,14.80
2024-02-08T03:23:15.483Z,14.90
2024-02-08T03:25:43.815Z,11.90
2024-02-08T03:28:14.221Z,12.40
2024-02-08T03:30:43.413Z,15.90
2024-02-08T03:33:16.043Z,11.00
2024-02-08T03:35:46.823Z,13.10
2024-02-08T03:38:16.468Z,9.70
2024-02-08T03:40:44.907Z,10.20
2024-02-08T03:43:16.352Z,11.10
2024-02-08T03:45:47.716Z,14.10
2024-02-08T03:48:17.141Z,8.80
2024-02-08T03:50:51.291Z,12.20
2024-02-08T03:53:21.932Z,11.50
2024-02-08T03:55:52.542Z,9.10
2024-02-08T03:58:23.981Z,8.80
2024-02-08T04:00:54.278Z,7.50
2024-02-08T04:03:42.238Z,12.40
2024-02-08T04:06:29.235Z,13.10
2024-02-08T04:09:10.104Z,12.70
2024-02-08T04:11:58.220Z,9.00
2024-02-08T04:14:45.956Z,14.00
2024-02-08T04:17:34.152Z,9.60
2024-02-08T04:20:22.752Z,12.40
2024-02-08T04:23:11.099Z,10.60
2024-02-08T04:25:59.602Z,11.10
2024-02-08T04:28:47.976Z,13.40
2024-02-08T04:31:36.391Z,11.90
2024-02-08T04:34:24.613Z,13.90
2024-02-08T04:37:12.720Z,11.20
2024-02-08T04:40:00.878Z,9.20
2024-02-08T04:43:02.771Z,9.90
2024-02-08T04:45:50.568Z,11.10
2024-02-08T04:48:38.444Z,13.00
2024-02-08T04:51:30.641Z,10.90
2024-02-08T04:54:03.015Z,8.60
2024-02-08T04:56:31.380Z,8.70
2024-02-08T04:59:20.210Z,10.40
2024-02-08T05:01:50.155Z,10.60
2024-02-08T05:04:21.778Z,14.30
2024-02-08T05:06:51.588Z,12.40
2024-02-08T05:09:22.687Z,10.90
2024-02-08T05:11:52.958Z,9.60
2024-02-08T05:14:21.573Z,11.20
2024-02-08T05:16:55.075Z,12.50
2024-02-08T05:19:24.394Z,11.70
2024-02-08T05:22:00.988Z,12.30
2024-02-08T05:24:31.670Z,13.70
2024-02-08T05:26:59.975Z,12.20
2024-02-08T05:29:29.558Z,12.70
2024-02-08T05:31:58.955Z,12.90
2024-02-08T05:34:28.373Z,10.40
2024-02-08T05:36:57.437Z,14.90
2024-02-08T05:39:29.118Z,18.40
2024-02-08T05:41:58.724Z,23.30
2024-02-08T05:44:30.205Z,18.40
2024-02-08T05:46:58.142Z,24.10
2024-02-08T05:49:31.279Z,22.50
2024-02-08T05:52:06.659Z,33.20
2024-02-08T05:54:44.691Z,19.50
2024-02-08T05:57:13.971Z,29.20
2024-02-08T05:59:45.516Z,13.60
2024-02-08T06:02:15.767Z,11.80
2024-02-08T06:04:51.136Z,11.00
2024-02-08T06:07:21.205Z,12.50
2024-02-08T06:09:53.068Z,13.40
2024-02-08T06:12:37.933Z,11.90
2024-02-08T06:15:37.131Z,20.80
2024-02-08T06:18:06.718Z,20.70
2024-02-08T06:20:40.996Z,26.30
2024-02-08T06:23:27.758Z,23.10
2024-02-08T06:26:12.622Z,26.30
2024-02-08T06:28:47.535Z,28.70
2024-02-08T06:31:20.838Z,27.10
2024-02-08T06:34:07.754Z,28.90
2024-02-08T06:37:00.165Z,30.10
2024-02-08T06:39:31.563Z,30.00
2024-02-08T06:42:29.032Z,29.30
2024-02-08T06:45:21.970Z,28.50
2024-02-08T06:48:15.382Z,22.60
2024-02-08T06:51:03.721Z,23.30
2024-02-08T06:53:51.779Z,21.80
2024-02-08T06:56:39.452Z,18.60
2024-02-08T06:59:27.543Z,17.50
2024-02-08T07:02:27.116Z,22.50
2024-02-08T07:05:15.154Z,13.80
2024-02-08T07:08:03.568Z,17.40
2024-02-08T07:10:51.570Z,15.30
2024-02-08T07:13:39.765Z,19.40
2024-02-08T07:16:27.839Z,16.90
2024-02-08T07:19:15.835Z,15.60
2024-02-08T07:22:04.321Z,17.40
2024-02-08T07:24:52.454Z,11.50
2024-02-08T07:27:41.001Z,18.20
2024-02-08T07:30:30.252Z,17.00
2024-02-08T07:33:18.463Z,17.00
2024-02-08T07:36:06.625Z,16.00
2024-02-08T07:38:54.690Z,18.50
2024-02-08T07:41:24.278Z,17.20
2024-02-08T07:43:56.331Z,15.80
2024-02-08T07:46:30.729Z,25.90
2024-02-08T07:49:05.910Z,20.00
2024-02-08T07:51:34.683Z,12.70
2024-02-08T07:54:10.929Z,14.50
2024-02-08T07:56:49.056Z,15.00
2024-02-08T07:59:27.163Z,15.70
2024-02-08T08:01:58.329Z,16.60
2024-02-08T08:04:47.303Z,14.10
2024-02-08T08:07:24.306Z,12.70
2024-02-08T08:10:14.845Z,13.10
2024-02-08T08:12:47.667Z,25.30
2024-02-08T08:15:17.501Z,34.20
2024-02-08T08:18:02.150Z,76.20
2024-02-08T08:20:50.552Z,82.30
2024-02-08T08:23:29.334Z,84.90
2024-02-08T08:26:06.360Z,196.20
2024-02-08T08:31:34.650Z,78.80
2024-02-08T08:34:23.311Z,61.50
2024-02-08T08:37:03.330Z,76.70
2024-02-08T08:39:59.532Z,36.90
2024-02-08T08:42:29.802Z,19.80
2024-02-08T08:45:00.645Z,23.80
2024-02-08T08:47:30.181Z,20.20
2024-02-08T08:49:58.745Z,14.20
2024-02-08T08:52:37.804Z,15.30
2024-02-08T08:55:18.102Z,16.40
2024-02-08T08:58:01.276Z,27.50
2024-02-08T09:00:34.179Z,28.20
2024-02-08T09:03:05.566Z,22.20
2024-02-08T09:05:37.299Z,23.70
2024-02-08T09:08:10.138Z,19.80
2024-02-08T09:10:43.230Z,21.60
2024-02-08T09:13:16.924Z,14.90
2024-02-08T09:15:56.449Z,14.70
2024-02-08T09:19:04.402Z,16.40
2024-02-08T09:21:36.234Z,14.90
2024-02-08T09:24:08.273Z,13.90
2024-02-08T09:26:52.924Z,23.40
2024-02-08T09:29:29.657Z,24.50
2024-02-08T09:32:15.615Z,18.50
2024-02-08T09:34:47.261Z,14.20
2024-02-08T09:37:16.254Z,12.00
2024-02-08T09:39:54.656Z,13.50
2024-02-08T09:42:29.046Z,11.90
2024-02-08T09:45:16.049Z,14.10
2024-02-08T09:47:57.547Z,11.90
2024-02-08T09:50:36.588Z,16.60
2024-02-08T09:53:20.026Z,22.50
2024-02-08T09:55:55.979Z,16.60
2024-02-08T09:58:38.727Z,41.70
2024-02-08T10:01:23.865Z,52.40
2024-02-08T10:04:05.251Z,60.80
2024-02-08T10:06:54.445Z,74.10
2024-02-08T10:09:47.615Z,27.20
2024-02-08T10:12:21.178Z,27.90
2024-02-08T10:14:55.710Z,15.60
2024-02-08T10:17:43.112Z,16.00
2024-02-08T10:20:22.407Z,13.00
2024-02-08T10:22:58.653Z,13.00
2024-02-08T10:25:46.964Z,10.50
2024-02-08T10:28:25.124Z,12.30
2024-02-08T10:31:00.462Z,10.80
2024-02-08T10:33:38.355Z,12.00
2024-02-08T10:36:21.659Z,11.20
2024-02-08T10:38:59.438Z,12.40
2024-02-08T10:41:45.845Z,17.00
2024-02-08T10:44:23.640Z,75.00
2024-02-08T10:46:56.758Z,318.50
2024-02-08T10:49:25.080Z,149.00
2024-02-08T10:52:01.090Z,54.30
2024-02-08T10:54:45.025Z,20.50
2024-02-08T10:57:33.246Z,9.50
2024-02-08T11:00:22.623Z,10.50
2024-02-08T11:03:01.130Z,9.40
2024-02-08T11:05:30.815Z,10.40
2024-02-08T11:07:59.038Z,9.90
2024-02-08T11:10:33.148Z,12.30
2024-02-08T11:13:11.067Z,9.80
2024-02-08T11:15:49.881Z,10.70
2024-02-08T11:18:34.395Z,12.00
2024-02-08T11:21:05.436Z,13.90
2024-02-08T11:23:47.316Z,12.20
2024-02-08T11:26:20.107Z,13.00
2024-02-08T11:28:49.548Z,14.60
2024-02-08T11:31:19.955Z,21.90
2024-02-08T11:33:50.433Z,15.80
2024-02-08T11:36:22.960Z,12.50
2024-02-08T11:39:05.267Z,17.20
2024-02-08T11:41:34.568Z,15.80
2024-02-08T11:44:06.336Z,14.20
2024-02-08T11:46:47.012Z,64.60
2024-02-08T11:49:33.871Z,127.20
2024-02-08T11:52:11.820Z,32.20
2024-02-08T11:54:41.198Z,16.60
2024-02-08T11:57:16.153Z,23.00
2024-02-08T11:59:47.473Z,16.40
2024-02-08T12:02:17.396Z,14.60
2024-02-08T12:04:50.691Z,14.90
2024-02-08T12:07:21.074Z,21.10
2024-02-08T12:10:00.705Z,32.20
2024-02-08T12:12:31.032Z,36.30
2024-02-08T12:14:58.951Z,37.80
2024-02-08T12:17:29.601Z,27.80
2024-02-08T12:20:01.008Z,59.80
2024-02-08T12:22:30.855Z,39.70
2024-02-08T12:25:03.239Z,39.60
2024-02-08T12:27:32.651Z,29.30
2024-02-08T12:30:02.224Z,25.80
2024-02-08T12:32:32.637Z,26.80
2024-02-08T12:35:15.693Z,24.80
2024-02-08T12:37:46.919Z,23.90
2024-02-08T12:40:16.546Z,21.80
2024-02-08T12:42:49.207Z,19.20
2024-02-08T12:45:18.294Z,17.10
2024-02-08T12:47:50.521Z,16.80
2024-02-08T12:50:25.785Z,16.10
2024-02-08T12:52:57.276Z,18.00
2024-02-08T12:55:29.971Z,18.30
2024-02-08T12:58:02.652Z,19.60
2024-02-08T13:00:34.173Z,27.30
2024-02-08T13:03:07.009Z,35.30
2024-02-08T13:05:36.520Z,27.60
2024-02-08T13:08:09.330Z,19.30
2024-02-08T13:10:39.976Z,18.00
2024-02-08T13:13:11.288Z,16.50
2024-02-08T13:15:42.352Z,16.10
2024-02-08T13:18:14.066Z,16.30
2024-02-08T13:20:44.801Z,21.90
2024-02-08T13:23:14.964Z,57.20
2024-02-08T13:25:43.689Z,68.50
2024-02-08T13:28:14.014Z,135.90
2024-02-08T13:30:46.340Z,64.30
2024-02-08T13:33:16.043Z,106.40
2024-02-08T13:35:44.873Z,89.20
2024-02-08T13:38:15.971Z,36.80
2024-02-08T13:40:44.431Z,27.10
2024-02-08T13:43:14.986Z,26.50
2024-02-08T13:45:43.705Z,16.60
2024-02-08T13:48:16.874Z,71.30
2024-02-08T13:50:45.658Z,139.20
2024-02-08T13:53:15.259Z,50.70
2024-02-08T13:56:04.122Z,47.20
2024-02-08T13:58:37.408Z,23.90
2024-02-08T14:01:06.219Z,67.30
2024-02-08T14:03:36.112Z,23.70
2024-02-08T14:06:09.852Z,18.90
2024-02-08T14:08:43.827Z,43.50
2024-02-08T14:11:17.011Z,21.40
2024-02-08T14:13:50.780Z,24.30
2024-02-08T14:16:21.906Z,17.10
2024-02-08T14:18:53.563Z,25.20
2024-02-08T14:21:25.781Z,30.80
2024-02-08T14:24:00.465Z,20.00
2024-02-08T14:26:43.841Z,18.40
2024-02-08T14:29:13.857Z,17.90
2024-02-08T14:31:42.382Z,21.60
2024-02-08T14:34:13.107Z,26.90
2024-02-08T14:36:46.996Z,30.60
2024-02-08T14:39:30.889Z,19.90
2024-02-08T14:42:12.074Z,21.00
2024-02-08T14:44:45.204Z,45.30
2024-02-08T14:47:31.916Z,21.00
2024-02-08T14:50:10.763Z,24.10
2024-02-08T14:52:44.910Z,30.30
2024-02-08T14:55:23.081Z,24.70
2024-02-08T14:57:59.556Z,24.20
2024-02-08T15:00:32.150Z,23.50
2024-02-08T15:03:08.788Z,24.00
2024-02-08T15:05:48.823Z,23.00
2024-02-08T15:08:24.783Z,25.80
2024-02-08T15:11:04.083Z,24.80
2024-02-08T15:13:48.296Z,23.80
2024-02-08T15:16:22.654Z,25.80
2024-02-08T15:18:54.459Z,28.50
2024-02-08T15:21:35.620Z,27.90
2024-02-08T15:24:08.484Z,26.80
2024-02-08T15:26:45.369Z,30.40
2024-02-08T15:29:33.715Z,31.20
2024-02-08T15:32:11.202Z,34.70
2024-02-08T15:34:47.889Z,29.40
2024-02-08T15:37:28.983Z,29.40
2024-02-08T15:40:12.106Z,30.00
2024-02-08T15:42:42.844Z,28.80
2024-02-08T15:45:12.190Z,26.50
2024-02-08T15:48:04.828Z,34.20
2024-02-08T15:50:42.865Z,32.30
2024-02-08T15:53:18.655Z,33.90
2024-02-08T15:55:50.245Z,32.10
2024-02-08T15:58:19.915Z,30.20
2024-02-08T16:01:08.402Z,31.50
2024-02-08T16:03:46.014Z,29.50
2024-02-08T16:06:34.434Z,29.90
2024-02-08T16:09:08.554Z,36.70
2024-02-08T16:11:36.683Z,30.30
2024-02-08T16:14:17.734Z,35.80
2024-02-08T16:17:07.202Z,45.30
2024-02-08T16:19:52.455Z,39.40
2024-02-08T16:22:25.199Z,33.80
2024-02-08T16:24:53.805Z,39.90
2024-02-08T16:27:28.830Z,32.90
2024-02-08T16:30:08.777Z,40.00
2024-02-08T16:32:55.337Z,38.20
2024-02-08T16:35:42.275Z,35.40
2024-02-08T16:38:17.532Z,37.50
2024-02-08T16:40:53.125Z,38.80
2024-02-08T16:43:33.712Z,38.10
2024-02-08T16:46:12.572Z,38.60
2024-02-08T16:48:47.959Z,41.40
2024-02-08T16:51:18.825Z,44.80
2024-02-08T16:54:02.471Z,44.30
2024-02-08T16:56:40.212Z,44.70
2024-02-08T16:59:15.882Z,40.60
2024-02-08T17:02:06.446Z,46.30
2024-02-08T17:05:02.562Z,49.70
2024-02-08T17:07:44.286Z,54.60
2024-02-08T17:10:44.859Z,43.00
2024-02-08T17:13:16.988Z,40.60
2024-02-08T17:16:01.243Z,35.80
2024-02-08T17:18:46.703Z,36.40
2024-02-08T17:21:37.760Z,40.70
2024-02-08T17:24:24.023Z,38.70
2024-02-08T17:27:20.454Z,41.80
2024-02-08T17:29:52.101Z,43.00
2024-02-08T17:32:26.271Z,53.60
2024-02-08T17:34:59.620Z,53.70
2024-02-08T17:37:31.224Z,47.00
2024-02-08T17:40:17.266Z,53.20
2024-02-08T17:42:47.117Z,48.10
2024-02-08T17:45:17.003Z,44.10
2024-02-08T17:47:47.108Z,50.30
2024-02-08T17:50:30.840Z,55.60
2024-02-08T17:53:04.341Z,52.40
2024-02-08T17:55:36.897Z,54.80
2024-02-08T17:58:13.143Z,48.40
2024-02-08T18:00:42.895Z,46.40
2024-02-08T18:03:16.213Z,42.40
2024-02-08T18:05:48.739Z,38.20
2024-02-08T18:08:20.214Z,43.80
2024-02-08T18:10:51.372Z,46.90
2024-02-08T18:13:22.009Z,56.30
2024-02-08T18:15:54.439Z,59.60
2024-02-08T18:18:23.774Z,53.50
2024-02-08T18:20:53.378Z,56.30
2024-02-08T18:23:26.052Z,50.80
2024-02-08T18:25:56.751Z,47.30
2024-02-08T18:28:26.197Z,47.00
2024-02-08T18:30:58.329Z,49.30
2024-02-08T18:33:27.852Z,49.70
2024-02-08T18:38:28.300Z,60.40
2024-02-08T18:41:02.107Z,54.90
2024-02-08T18:43:31.656Z,53.60
2024-02-08T18:46:06.616Z,53.10
2024-02-08T18:48:41.334Z,63.60
2024-02-08T18:53:45.686Z,63.10
2024-02-08T18:56:18.995Z,65.20
2024-02-08T18:58:52.394Z,63.20
2024-02-08T19:01:21.865Z,65.30
2024-02-08T19:03:50.306Z,51.30
2024-02-08T19:06:21.142Z,57.00
2024-02-08T19:08:53.280Z,59.80
2024-02-08T19:11:23.405Z,55.10
2024-02-08T19:13:52.706Z,57.50
2024-02-08T19:16:28.531Z,57.30
2024-02-08T19:19:03.234Z,55.40
2024-02-08T19:21:38.307Z,60.20
2024-02-08T19:24:08.039Z,64.20
2024-02-08T19:26:38.440Z,64.60
2024-02-08T19:29:07.107Z,62.60
2024-02-08T19:31:42.077Z,57.20
2024-02-08T19:34:18.192Z,62.00
2024-02-08T19:36:54.715Z,61.10
2024-02-08T19:39:44.592Z,63.90
2024-02-08T19:42:34.170Z,66.00
2024-02-08T19:45:18.045Z,60.60
2024-02-08T19:47:49.978Z,63.70
2024-02-08T19:50:22.389Z,70.10
2024-02-08T19:52:53.193Z,67.50
2024-02-08T19:55:30.852Z,62.90
2024-02-08T19:58:00.939Z,60.60
2024-02-08T20:00:29.689Z,58.90
2024-02-08T20:03:09.556Z,64.90
2024-02-08T20:05:40.591Z,61.90
2024-02-08T20:08:10.769Z,56.90
2024-02-08T20:10:40.407Z,60.90
2024-02-08T20:13:25.129Z,55.40
2024-02-08T20:15:54.691Z,60.80
2024-02-08T20:18:22.788Z,59.00
2024-02-08T20:20:53.925Z,60.60
2024-02-08T20:23:32.773Z,60.60
2024-02-08T20:26:02.396Z,60.90
2024-02-08T20:28:32.142Z,61.50
2024-02-08T20:31:06.544Z,63.60
2024-02-08T20:33:36.167Z,67.40
2024-02-08T20:36:09.308Z,59.90
2024-02-08T20:38:38.161Z,58.00
2024-02-08T20:41:08.117Z,63.70
2024-02-08T20:43:37.908Z,55.70
2024-02-08T20:46:07.249Z,52.50
2024-02-08T20:48:35.479Z,55.80
2024-02-08T20:51:07.970Z,57.90
2024-02-08T20:53:36.049Z,60.10
2024-02-08T20:56:07.082Z,57.10
2024-02-08T20:58:41.118Z,61.00
2024-02-08T21:01:11.484Z,59.00
2024-02-08T21:03:40.287Z,65.00
2024-02-08T21:06:09.979Z,58.10
2024-02-08T21:08:39.017Z,58.30
2024-02-08T21:11:08.317Z,53.00
2024-02-08T21:13:36.589Z,52.60
2024-02-08T21:16:07.164Z,56.20
2024-02-08T21:18:38.061Z,54.60
2024-02-08T21:21:07.564Z,51.10
2024-02-08T21:23:36.042Z,48.60
2024-02-08T21:26:09.842Z,49.10
2024-02-08T21:28:38.741Z,46.00
2024-02-08T21:31:08.283Z,53.10
2024-02-08T21:33:38.815Z,49.50
2024-02-08T21:36:08.282Z,38.30
2024-02-08T21:38:36.410Z,45.10
2024-02-08T21:41:06.063Z,46.50
2024-02-08T21:43:35.607Z,39.70
2024-02-08T21:46:06.035Z,41.70
2024-02-08T21:48:38.267Z,56.50
2024-02-08T21:51:12.677Z,49.30
2024-02-08T21:53:43.105Z,43.00
2024-02-08T21:56:15.161Z,32.50
2024-02-08T21:58:44.626Z,33.80
2024-02-08T22:04:04.426Z,32.00
2024-02-08T22:06:33.432Z,34.20
2024-02-08T22:09:09.821Z,32.70
2024-02-08T22:11:47.204Z,29.30
2024-02-08T22:14:16.746Z,34.40
2024-02-08T22:16:44.933Z,31.00
2024-02-08T22:19:15.485Z,30.10
2024-02-08T22:21:45.858Z,31.80
2024-02-08T22:24:15.754Z,31.70
2024-02-08T22:26:47.561Z,30.50
2024-02-08T22:29:17.259Z,28.80
2024-02-08T22:31:52.701Z,26.80
2024-02-08T22:34:22.102Z,27.40
2024-02-08T22:36:50.346Z,28.40
2024-02-08T22:39:23.853Z,24.60
2024-02-08T22:41:53.347Z,23.70
2024-02-08T22:44:22.859Z,23.90
2024-02-08T22:46:53.635Z,19.00
2024-02-08T22:49:25.088Z,20.40
2024-02-08T22:51:53.350Z,21.10
2024-02-08T22:54:24.282Z,18.10
2024-02-08T22:56:52.782Z,19.10
2024-02-08T22:59:22.432Z,18.30
2024-02-08T23:01:54.064Z,17.00
2024-02-08T23:04:24.162Z,15.80
2024-02-08T23:06:52.701Z,18.20
2024-02-08T23:09:22.309Z,15.80
2024-02-08T23:11:50.829Z,17.30
2024-02-08T23:14:22.028Z,16.80
2024-02-08T23:16:51.739Z,17.50
2024-02-08T23:19:21.470Z,15.20
2024-02-08T23:21:53.637Z,16.70
2024-02-08T23:24:26.279Z,16.20
2024-02-08T23:26:54.593Z,14.00
2024-02-08T23:29:25.473Z,14.40
2024-02-08T23:31:53.578Z,15.20
2024-02-08T23:34:24.682Z,13.50
2024-02-08T23:36:55.419Z,11.40
2024-02-08T23:39:28.032Z,12.40
2024-02-08T23:41:58.959Z,13.30
2024-02-08T23:44:30.002Z,12.30
2024-02-08T23:46:59.004Z,10.70
2024-02-08T23:49:29.301Z,11.10
2024-02-08T23:51:59.604Z,11.50
2024-02-08T23:54:29.598Z,13.10
2024-02-08T23:56:58.241Z,12.70
2024-02-08T23:59:29.369Z,13.00
